sensor_id;sensor_type;location;lat;lon;timestamp;P1;durP1;ratioP1;P2;durP2;ratioP2
9473;SDS011;8865;47.636;7.692;2023-12-07T00:01:55;9.40;;;7.93;;
9473;SDS011;8865;47.636;7.692;2023-12-07T00:04:21;8.87;;;7.87;;
9473;SDS011;8865;47.636;7.692;2023-12-07T00:06:48;9.50;;;7.60;;
9473;SDS011;8865;47.636;7.692;2023-12-07T00:09:14;10.50;;;7.70;;
9473;SDS011;8865;47.636;7.692;2023-12-07T00:11:40;8.97;;;7.60;;
9473;SDS011;8865;47.636;7.692;2023-12-07T00:14:06;8.70;;;7.20;;
9473;SDS011;8865;47.636;7.692;2023-12-07T00:16:32;7.87;;;6.83;;
9473;SDS011;8865;47.636;7.692;2023-12-07T00:18:58;8.57;;;7.67;;
9473;SDS011;8865;47.636;7.692;2023-12-07T00:21:24;8.10;;;7.20;;
9473;SDS011;8865;47.636;7.692;2023-12-07T00:23:50;7.93;;;7.13;;
9473;SDS011;8865;47.636;7.692;2023-12-07T00:26:16;8.40;;;7.30;;
9473;SDS011;8865;47.636;7.692;2023-12-07T00:28:42;8.07;;;7.00;;
9473;SDS011;8865;47.636;7.692;2023-12-07T00:31:09;8.27;;;7.23;;
9473;SDS011;8865;47.636;7.692;2023-12-07T00:33:36;8.00;;;7.20;;
9473;SDS011;8865;47.636;7.692;2023-12-07T00:36:02;8.67;;;7.23;;
9473;SDS011;8865;47.636;7.692;2023-12-07T00:38:29;7.43;;;6.37;;
9473;SDS011;8865;47.636;7.692;2023-12-07T00:40:57;8.07;;;7.20;;
9473;SDS011;8865;47.636;7.692;2023-12-07T00:43:23;7.60;;;6.87;;
9473;SDS011;8865;47.636;7.692;2023-12-07T00:45:49;8.03;;;7.00;;
9473;SDS011;8865;47.636;7.692;2023-12-07T00:48:15;8.00;;;7.03;;
9473;SDS011;8865;47.636;7.692;2023-12-07T00:50:41;7.83;;;7.03;;
9473;SDS011;8865;47.636;7.692;2023-12-07T00:53:07;8.37;;;7.33;;
9473;SDS011;8865;47.636;7.692;2023-12-07T00:55:34;8.97;;;7.27;;
9473;SDS011;8865;47.636;7.692;2023-12-07T00:58:00;8.67;;;7.30;;
9473;SDS011;8865;47.636;7.692;2023-12-07T01:00:27;8.17;;;7.30;;
9473;SDS011;8865;47.636;7.692;2023-12-07T01:02:53;9.53;;;6.87;;
9473;SDS011;8865;47.636;7.692;2023-12-07T01:05:19;7.73;;;6.90;;
9473;SDS011;8865;47.636;7.692;2023-12-07T01:07:45;7.37;;;6.53;;
9473;SDS011;8865;47.636;7.692;2023-12-07T01:10:11;7.53;;;6.50;;
9473;SDS011;8865;47.636;7.692;2023-12-07T01:12:37;8.20;;;7.37;;
9473;SDS011;8865;47.636;7.692;2023-12-07T01:15:03;8.07;;;6.83;;
9473;SDS011;8865;47.636;7.692;2023-12-07T01:17:30;8.57;;;7.67;;
9473;SDS011;8865;47.636;7.692;2023-12-07T01:19:56;8.37;;;7.30;;
9473;SDS011;8865;47.636;7.692;2023-12-07T01:22:22;9.97;;;8.00;;
9473;SDS011;8865;47.636;7.692;2023-12-07T01:24:48;9.77;;;8.00;;
9473;SDS011;8865;47.636;7.692;2023-12-07T01:27:14;8.23;;;7.37;;
9473;SDS011;8865;47.636;7.692;2023-12-07T01:29:40;8.63;;;7.73;;
9473;SDS011;8865;47.636;7.692;2023-12-07T01:32:06;8.53;;;7.47;;
9473;SDS011;8865;47.636;7.692;2023-12-07T01:34:32;9.33;;;6.87;;
9473;SDS011;8865;47.636;7.692;2023-12-07T01:36:58;8.50;;;7.00;;
9473;SDS011;8865;47.636;7.692;2023-12-07T01:39:24;7.77;;;6.90;;
9473;SDS011;8865;47.636;7.692;2023-12-07T01:41:51;8.60;;;7.07;;
9473;SDS011;8865;47.636;7.692;2023-12-07T01:44:17;9.53;;;7.30;;
9473;SDS011;8865;47.636;7.692;2023-12-07T01:46:43;8.43;;;7.20;;
9473;SDS011;8865;47.636;7.692;2023-12-07T01:49:09;9.03;;;7.90;;
9473;SDS011;8865;47.636;7.692;2023-12-07T01:51:35;8.97;;;7.80;;
9473;SDS011;8865;47.636;7.692;2023-12-07T01:54:01;9.37;;;7.47;;
9473;SDS011;8865;47.636;7.692;2023-12-07T01:56:28;10.03;;;8.20;;
9473;SDS011;8865;47.636;7.692;2023-12-07T01:58:56;10.00;;;7.97;;
9473;SDS011;8865;47.636;7.692;2023-12-07T02:01:23;8.83;;;7.93;;
9473;SDS011;8865;47.636;7.692;2023-12-07T02:03:48;8.07;;;7.10;;
9473;SDS011;8865;47.636;7.692;2023-12-07T02:06:15;8.80;;;7.87;;
9473;SDS011;8865;47.636;7.692;2023-12-07T02:08:41;7.87;;;7.07;;
9473;SDS011;8865;47.636;7.692;2023-12-07T02:11:09;8.73;;;7.67;;
9473;SDS011;8865;47.636;7.692;2023-12-07T02:13:36;8.93;;;6.60;;
9473;SDS011;8865;47.636;7.692;2023-12-07T02:16:06;7.50;;;6.70;;
9473;SDS011;8865;47.636;7.692;2023-12-07T02:18:50;9.13;;;8.17;;
9473;SDS011;8865;47.636;7.692;2023-12-07T02:21:30;9.53;;;8.27;;
9473;SDS011;8865;47.636;7.692;2023-12-07T02:24:00;9.73;;;8.60;;
9473;SDS011;8865;47.636;7.692;2023-12-07T02:26:37;9.80;;;7.90;;
9473;SDS011;8865;47.636;7.692;2023-12-07T02:29:04;10.47;;;8.37;;
9473;SDS011;8865;47.636;7.692;2023-12-07T02:31:30;10.90;;;7.67;;
9473;SDS011;8865;47.636;7.692;2023-12-07T02:33:56;10.73;;;8.10;;
9473;SDS011;8865;47.636;7.692;2023-12-07T02:36:23;7.87;;;6.77;;
9473;SDS011;8865;47.636;7.692;2023-12-07T02:38:52;8.13;;;6.67;;
9473;SDS011;8865;47.636;7.692;2023-12-07T02:41:21;7.37;;;6.47;;
9473;SDS011;8865;47.636;7.692;2023-12-07T02:43:48;7.80;;;6.97;;
9473;SDS011;8865;47.636;7.692;2023-12-07T02:46:15;8.10;;;6.57;;
9473;SDS011;8865;47.636;7.692;2023-12-07T02:48:41;9.03;;;6.23;;
9473;SDS011;8865;47.636;7.692;2023-12-07T02:51:07;6.97;;;6.20;;
9473;SDS011;8865;47.636;7.692;2023-12-07T02:53:33;7.00;;;5.60;;
9473;SDS011;8865;47.636;7.692;2023-12-07T02:56:00;6.87;;;5.70;;
9473;SDS011;8865;47.636;7.692;2023-12-07T02:58:25;6.77;;;5.53;;
9473;SDS011;8865;47.636;7.692;2023-12-07T03:00:51;6.67;;;5.90;;
9473;SDS011;8865;47.636;7.692;2023-12-07T03:03:17;6.70;;;5.63;;
9473;SDS011;8865;47.636;7.692;2023-12-07T03:05:43;6.77;;;6.07;;
9473;SDS011;8865;47.636;7.692;2023-12-07T03:08:09;7.67;;;6.10;;
9473;SDS011;8865;47.636;7.692;2023-12-07T03:10:35;6.80;;;6.00;;
9473;SDS011;8865;47.636;7.692;2023-12-07T03:13:01;8.87;;;6.73;;
9473;SDS011;8865;47.636;7.692;2023-12-07T03:15:28;8.03;;;6.10;;
9473;SDS011;8865;47.636;7.692;2023-12-07T03:17:54;10.83;;;7.07;;
9473;SDS011;8865;47.636;7.692;2023-12-07T03:20:20;8.77;;;7.17;;
9473;SDS011;8865;47.636;7.692;2023-12-07T03:22:46;10.83;;;8.47;;
9473;SDS011;8865;47.636;7.692;2023-12-07T03:25:12;10.17;;;8.03;;
9473;SDS011;8865;47.636;7.692;2023-12-07T03:27:38;9.40;;;7.47;;
9473;SDS011;8865;47.636;7.692;2023-12-07T03:30:04;9.57;;;8.07;;
9473;SDS011;8865;47.636;7.692;2023-12-07T03:32:31;9.03;;;7.30;;
9473;SDS011;8865;47.636;7.692;2023-12-07T03:34:57;8.13;;;6.73;;
9473;SDS011;8865;47.636;7.692;2023-12-07T03:37:23;7.83;;;7.03;;
9473;SDS011;8865;47.636;7.692;2023-12-07T03:39:49;9.03;;;7.53;;
9473;SDS011;8865;47.636;7.692;2023-12-07T03:42:16;8.33;;;7.00;;
9473;SDS011;8865;47.636;7.692;2023-12-07T03:44:42;7.63;;;6.83;;
9473;SDS011;8865;47.636;7.692;2023-12-07T03:47:08;8.33;;;7.17;;
9473;SDS011;8865;47.636;7.692;2023-12-07T03:49:35;8.40;;;7.47;;
9473;SDS011;8865;47.636;7.692;2023-12-07T03:52:01;7.70;;;6.90;;
9473;SDS011;8865;47.636;7.692;2023-12-07T03:54:27;7.97;;;7.17;;
9473;SDS011;8865;47.636;7.692;2023-12-07T03:56:53;7.27;;;6.30;;
9473;SDS011;8865;47.636;7.692;2023-12-07T03:59:19;8.33;;;6.80;;
9473;SDS011;8865;47.636;7.692;2023-12-07T04:01:45;7.33;;;6.37;;
9473;SDS011;8865;47.636;7.692;2023-12-07T04:04:10;7.60;;;6.80;;
9473;SDS011;8865;47.636;7.692;2023-12-07T04:06:36;7.77;;;6.97;;
9473;SDS011;8865;47.636;7.692;2023-12-07T04:09:02;7.57;;;6.63;;
9473;SDS011;8865;47.636;7.692;2023-12-07T04:11:29;8.27;;;6.13;;
9473;SDS011;8865;47.636;7.692;2023-12-07T04:13:55;8.40;;;7.10;;
9473;SDS011;8865;47.636;7.692;2023-12-07T04:16:21;7.63;;;6.77;;
9473;SDS011;8865;47.636;7.692;2023-12-07T04:18:48;8.50;;;6.80;;
9473;SDS011;8865;47.636;7.692;2023-12-07T04:21:14;7.30;;;6.50;;
9473;SDS011;8865;47.636;7.692;2023-12-07T04:23:40;7.03;;;6.17;;
9473;SDS011;8865;47.636;7.692;2023-12-07T04:26:06;6.70;;;5.77;;
9473;SDS011;8865;47.636;7.692;2023-12-07T04:28:32;8.70;;;6.00;;
9473;SDS011;8865;47.636;7.692;2023-12-07T04:30:58;7.87;;;6.33;;
9473;SDS011;8865;47.636;7.692;2023-12-07T04:33:24;8.83;;;6.40;;
9473;SDS011;8865;47.636;7.692;2023-12-07T04:35:50;8.33;;;7.07;;
9473;SDS011;8865;47.636;7.692;2023-12-07T04:38:17;8.10;;;6.40;;
9473;SDS011;8865;47.636;7.692;2023-12-07T04:40:43;7.83;;;6.50;;
9473;SDS011;8865;47.636;7.692;2023-12-07T04:43:09;8.33;;;6.67;;
9473;SDS011;8865;47.636;7.692;2023-12-07T04:45:35;9.73;;;7.37;;
9473;SDS011;8865;47.636;7.692;2023-12-07T04:48:01;9.90;;;6.93;;
9473;SDS011;8865;47.636;7.692;2023-12-07T04:50:27;10.50;;;7.17;;
9473;SDS011;8865;47.636;7.692;2023-12-07T04:52:53;11.13;;;7.40;;
9473;SDS011;8865;47.636;7.692;2023-12-07T04:55:20;10.80;;;7.53;;
9473;SDS011;8865;47.636;7.692;2023-12-07T04:57:46;8.87;;;7.13;;
9473;SDS011;8865;47.636;7.692;2023-12-07T05:00:12;8.27;;;6.93;;
9473;SDS011;8865;47.636;7.692;2023-12-07T05:02:39;9.40;;;7.07;;
9473;SDS011;8865;47.636;7.692;2023-12-07T05:05:05;8.33;;;6.60;;
9473;SDS011;8865;47.636;7.692;2023-12-07T05:07:31;8.70;;;6.33;;
9473;SDS011;8865;47.636;7.692;2023-12-07T05:09:58;9.07;;;6.53;;
9473;SDS011;8865;47.636;7.692;2023-12-07T05:12:24;7.07;;;5.83;;
9473;SDS011;8865;47.636;7.692;2023-12-07T05:14:50;7.97;;;5.87;;
9473;SDS011;8865;47.636;7.692;2023-12-07T05:17:17;7.53;;;6.10;;
9473;SDS011;8865;47.636;7.692;2023-12-07T05:19:43;7.57;;;6.67;;
9473;SDS011;8865;47.636;7.692;2023-12-07T05:22:09;8.30;;;6.67;;
9473;SDS011;8865;47.636;7.692;2023-12-07T05:24:36;8.03;;;6.57;;
9473;SDS011;8865;47.636;7.692;2023-12-07T05:27:02;8.90;;;7.03;;
9473;SDS011;8865;47.636;7.692;2023-12-07T05:29:29;10.17;;;7.67;;
9473;SDS011;8865;47.636;7.692;2023-12-07T05:31:55;11.80;;;9.67;;
9473;SDS011;8865;47.636;7.692;2023-12-07T05:34:21;19.33;;;14.60;;
9473;SDS011;8865;47.636;7.692;2023-12-07T05:36:47;15.67;;;12.03;;
9473;SDS011;8865;47.636;7.692;2023-12-07T05:39:13;12.47;;;10.03;;
9473;SDS011;8865;47.636;7.692;2023-12-07T05:41:39;12.70;;;10.17;;
9473;SDS011;8865;47.636;7.692;2023-12-07T05:44:05;13.10;;;10.07;;
9473;SDS011;8865;47.636;7.692;2023-12-07T05:46:31;14.73;;;9.97;;
9473;SDS011;8865;47.636;7.692;2023-12-07T05:48:58;11.90;;;9.70;;
9473;SDS011;8865;47.636;7.692;2023-12-07T05:51:24;12.23;;;9.50;;
9473;SDS011;8865;47.636;7.692;2023-12-07T05:53:50;11.23;;;8.60;;
9473;SDS011;8865;47.636;7.692;2023-12-07T05:56:19;12.80;;;9.70;;
9473;SDS011;8865;47.636;7.692;2023-12-07T05:58:46;25.13;;;17.50;;
9473;SDS011;8865;47.636;7.692;2023-12-07T06:01:16;11.53;;;8.80;;
9473;SDS011;8865;47.636;7.692;2023-12-07T06:03:43;10.90;;;8.40;;
9473;SDS011;8865;47.636;7.692;2023-12-07T06:06:10;11.13;;;8.63;;
9473;SDS011;8865;47.636;7.692;2023-12-07T06:08:37;9.40;;;7.50;;
9473;SDS011;8865;47.636;7.692;2023-12-07T06:11:03;8.27;;;6.57;;
9473;SDS011;8865;47.636;7.692;2023-12-07T06:13:29;9.13;;;7.27;;
9473;SDS011;8865;47.636;7.692;2023-12-07T06:15:55;8.17;;;6.90;;
9473;SDS011;8865;47.636;7.692;2023-12-07T06:18:21;7.80;;;6.53;;
9473;SDS011;8865;47.636;7.692;2023-12-07T06:20:47;7.50;;;6.30;;
9473;SDS011;8865;47.636;7.692;2023-12-07T06:23:14;8.43;;;6.50;;
9473;SDS011;8865;47.636;7.692;2023-12-07T06:25:40;6.80;;;5.97;;
9473;SDS011;8865;47.636;7.692;2023-12-07T06:28:06;7.50;;;5.80;;
9473;SDS011;8865;47.636;7.692;2023-12-07T06:30:32;7.67;;;5.90;;
9473;SDS011;8865;47.636;7.692;2023-12-07T06:32:58;9.03;;;6.30;;
9473;SDS011;8865;47.636;7.692;2023-12-07T06:35:24;9.73;;;7.80;;
9473;SDS011;8865;47.636;7.692;2023-12-07T06:37:51;15.47;;;10.40;;
9473;SDS011;8865;47.636;7.692;2023-12-07T06:40:17;7.73;;;5.90;;
9473;SDS011;8865;47.636;7.692;2023-12-07T06:42:43;7.13;;;5.70;;
9473;SDS011;8865;47.636;7.692;2023-12-07T06:45:09;9.70;;;6.70;;
9473;SDS011;8865;47.636;7.692;2023-12-07T06:47:40;8.37;;;5.73;;
9473;SDS011;8865;47.636;7.692;2023-12-07T06:50:08;8.43;;;6.13;;
9473;SDS011;8865;47.636;7.692;2023-12-07T06:52:36;8.20;;;6.37;;
9473;SDS011;8865;47.636;7.692;2023-12-07T06:55:02;6.67;;;5.93;;
9473;SDS011;8865;47.636;7.692;2023-12-07T06:57:28;8.53;;;6.70;;
9473;SDS011;8865;47.636;7.692;2023-12-07T06:59:54;7.30;;;6.10;;
9473;SDS011;8865;47.636;7.692;2023-12-07T07:02:20;9.43;;;7.17;;
9473;SDS011;8865;47.636;7.692;2023-12-07T07:04:46;20.77;;;12.70;;
9473;SDS011;8865;47.636;7.692;2023-12-07T07:07:15;14.57;;;10.57;;
9473;SDS011;8865;47.636;7.692;2023-12-07T07:09:41;9.70;;;6.67;;
9473;SDS011;8865;47.636;7.692;2023-12-07T07:12:07;10.17;;;6.40;;
9473;SDS011;8865;47.636;7.692;2023-12-07T07:14:34;7.73;;;6.07;;
9473;SDS011;8865;47.636;7.692;2023-12-07T07:17:01;8.03;;;6.30;;
9473;SDS011;8865;47.636;7.692;2023-12-07T07:19:27;6.93;;;6.13;;
9473;SDS011;8865;47.636;7.692;2023-12-07T07:21:53;7.97;;;5.83;;
9473;SDS011;8865;47.636;7.692;2023-12-07T07:24:18;8.17;;;6.03;;
9473;SDS011;8865;47.636;7.692;2023-12-07T07:26:44;6.90;;;6.00;;
9473;SDS011;8865;47.636;7.692;2023-12-07T07:29:10;7.63;;;6.27;;
9473;SDS011;8865;47.636;7.692;2023-12-07T07:31:36;8.37;;;6.40;;
9473;SDS011;8865;47.636;7.692;2023-12-07T07:34:02;9.83;;;6.83;;
9473;SDS011;8865;47.636;7.692;2023-12-07T07:36:30;10.53;;;7.10;;
9473;SDS011;8865;47.636;7.692;2023-12-07T07:38:57;9.23;;;6.60;;
9473;SDS011;8865;47.636;7.692;2023-12-07T07:41:23;9.53;;;6.57;;
9473;SDS011;8865;47.636;7.692;2023-12-07T07:43:49;8.10;;;6.60;;
9473;SDS011;8865;47.636;7.692;2023-12-07T07:46:16;8.63;;;7.37;;
9473;SDS011;8865;47.636;7.692;2023-12-07T07:48:42;8.80;;;6.70;;
9473;SDS011;8865;47.636;7.692;2023-12-07T07:51:08;10.50;;;7.50;;
9473;SDS011;8865;47.636;7.692;2023-12-07T07:53:34;9.03;;;7.20;;
9473;SDS011;8865;47.636;7.692;2023-12-07T07:56:00;11.87;;;7.33;;
9473;SDS011;8865;47.636;7.692;2023-12-07T07:58:26;12.60;;;7.40;;
9473;SDS011;8865;47.636;7.692;2023-12-07T08:00:52;9.60;;;7.23;;
9473;SDS011;8865;47.636;7.692;2023-12-07T08:03:18;12.10;;;7.60;;
9473;SDS011;8865;47.636;7.692;2023-12-07T08:05:44;10.70;;;7.27;;
9473;SDS011;8865;47.636;7.692;2023-12-07T08:08:10;11.63;;;7.53;;
9473;SDS011;8865;47.636;7.692;2023-12-07T08:10:36;12.37;;;7.47;;
9473;SDS011;8865;47.636;7.692;2023-12-07T08:13:05;12.87;;;7.37;;
9473;SDS011;8865;47.636;7.692;2023-12-07T08:15:33;10.40;;;7.60;;
9473;SDS011;8865;47.636;7.692;2023-12-07T08:18:00;10.33;;;7.53;;
9473;SDS011;8865;47.636;7.692;2023-12-07T08:20:26;9.93;;;7.30;;
9473;SDS011;8865;47.636;7.692;2023-12-07T08:22:52;9.07;;;7.10;;
9473;SDS011;8865;47.636;7.692;2023-12-07T08:25:18;10.20;;;6.97;;
9473;SDS011;8865;47.636;7.692;2023-12-07T08:27:44;7.60;;;6.20;;
9473;SDS011;8865;47.636;7.692;2023-12-07T08:30:11;8.70;;;6.50;;
9473;SDS011;8865;47.636;7.692;2023-12-07T08:32:38;9.97;;;6.53;;
9473;SDS011;8865;47.636;7.692;2023-12-07T08:35:05;8.63;;;6.17;;
9473;SDS011;8865;47.636;7.692;2023-12-07T08:37:32;8.07;;;6.47;;
9473;SDS011;8865;47.636;7.692;2023-12-07T08:39:58;11.10;;;6.93;;
9473;SDS011;8865;47.636;7.692;2023-12-07T08:42:25;8.93;;;6.43;;
9473;SDS011;8865;47.636;7.692;2023-12-07T08:44:52;7.20;;;5.53;;
9473;SDS011;8865;47.636;7.692;2023-12-07T08:47:19;6.73;;;5.37;;
9473;SDS011;8865;47.636;7.692;2023-12-07T08:49:45;6.30;;;5.23;;
9473;SDS011;8865;47.636;7.692;2023-12-07T08:52:11;6.63;;;4.87;;
9473;SDS011;8865;47.636;7.692;2023-12-07T08:54:37;5.90;;;5.10;;
9473;SDS011;8865;47.636;7.692;2023-12-07T08:57:03;6.90;;;5.50;;
9473;SDS011;8865;47.636;7.692;2023-12-07T08:59:29;5.77;;;4.90;;
9473;SDS011;8865;47.636;7.692;2023-12-07T09:01:56;8.03;;;5.20;;
9473;SDS011;8865;47.636;7.692;2023-12-07T09:04:22;5.33;;;4.50;;
9473;SDS011;8865;47.636;7.692;2023-12-07T09:06:48;5.57;;;4.60;;
9473;SDS011;8865;47.636;7.692;2023-12-07T09:09:14;4.73;;;4.07;;
9473;SDS011;8865;47.636;7.692;2023-12-07T09:11:40;5.23;;;4.20;;
9473;SDS011;8865;47.636;7.692;2023-12-07T09:14:06;5.83;;;4.00;;
9473;SDS011;8865;47.636;7.692;2023-12-07T09:16:31;4.93;;;4.43;;
9473;SDS011;8865;47.636;7.692;2023-12-07T09:18:57;5.47;;;3.93;;
9473;SDS011;8865;47.636;7.692;2023-12-07T09:21:23;4.53;;;4.13;;
9473;SDS011;8865;47.636;7.692;2023-12-07T09:23:51;4.47;;;3.60;;
9473;SDS011;8865;47.636;7.692;2023-12-07T09:26:18;4.17;;;3.50;;
9473;SDS011;8865;47.636;7.692;2023-12-07T09:28:44;4.13;;;3.73;;
9473;SDS011;8865;47.636;7.692;2023-12-07T09:31:09;4.00;;;3.60;;
9473;SDS011;8865;47.636;7.692;2023-12-07T09:33:35;3.43;;;3.13;;
9473;SDS011;8865;47.636;7.692;2023-12-07T09:36:02;4.20;;;3.60;;
9473;SDS011;8865;47.636;7.692;2023-12-07T09:38:37;3.97;;;3.50;;
9473;SDS011;8865;47.636;7.692;2023-12-07T09:41:03;3.73;;;3.30;;
9473;SDS011;8865;47.636;7.692;2023-12-07T09:43:29;3.87;;;3.50;;
9473;SDS011;8865;47.636;7.692;2023-12-07T09:45:56;3.93;;;3.60;;
9473;SDS011;8865;47.636;7.692;2023-12-07T09:48:23;3.83;;;3.53;;
9473;SDS011;8865;47.636;7.692;2023-12-07T09:50:49;3.50;;;3.20;;
9473;SDS011;8865;47.636;7.692;2023-12-07T09:53:16;4.53;;;4.03;;
9473;SDS011;8865;47.636;7.692;2023-12-07T09:55:42;5.17;;;4.40;;
9473;SDS011;8865;47.636;7.692;2023-12-07T09:58:08;4.50;;;3.50;;
9473;SDS011;8865;47.636;7.692;2023-12-07T10:00:35;4.00;;;3.47;;
9473;SDS011;8865;47.636;7.692;2023-12-07T10:03:01;3.97;;;3.17;;
9473;SDS011;8865;47.636;7.692;2023-12-07T10:05:28;3.40;;;3.10;;
9473;SDS011;8865;47.636;7.692;2023-12-07T10:07:54;3.70;;;3.10;;
9473;SDS011;8865;47.636;7.692;2023-12-07T10:10:20;4.13;;;3.10;;
9473;SDS011;8865;47.636;7.692;2023-12-07T10:12:52;3.07;;;2.87;;
9473;SDS011;8865;47.636;7.692;2023-12-07T10:15:20;3.07;;;2.77;;
9473;SDS011;8865;47.636;7.692;2023-12-07T10:17:48;3.80;;;3.40;;
9473;SDS011;8865;47.636;7.692;2023-12-07T10:20:19;4.50;;;4.10;;
9473;SDS011;8865;47.636;7.692;2023-12-07T10:23:11;5.00;;;4.27;;
9473;SDS011;8865;47.636;7.692;2023-12-07T10:25:39;5.40;;;4.90;;
9473;SDS011;8865;47.636;7.692;2023-12-07T10:28:07;5.37;;;4.90;;
9473;SDS011;8865;47.636;7.692;2023-12-07T10:30:37;5.80;;;5.30;;
9473;SDS011;8865;47.636;7.692;2023-12-07T10:33:08;6.23;;;5.73;;
9473;SDS011;8865;47.636;7.692;2023-12-07T10:35:40;6.67;;;6.07;;
9473;SDS011;8865;47.636;7.692;2023-12-07T10:38:06;6.27;;;5.77;;
9473;SDS011;8865;47.636;7.692;2023-12-07T10:40:33;7.00;;;6.37;;
9473;SDS011;8865;47.636;7.692;2023-12-07T10:42:59;6.93;;;6.27;;
9473;SDS011;8865;47.636;7.692;2023-12-07T10:45:33;5.93;;;5.40;;
9473;SDS011;8865;47.636;7.692;2023-12-07T10:48:04;6.43;;;5.83;;
9473;SDS011;8865;47.636;7.692;2023-12-07T10:50:42;6.80;;;6.10;;
9473;SDS011;8865;47.636;7.692;2023-12-07T10:53:14;6.10;;;5.50;;
9473;SDS011;8865;47.636;7.692;2023-12-07T10:55:52;5.63;;;5.13;;
9473;SDS011;8865;47.636;7.692;2023-12-07T10:58:22;6.50;;;5.90;;
9473;SDS011;8865;47.636;7.692;2023-12-07T11:00:51;6.50;;;5.90;;
9473;SDS011;8865;47.636;7.692;2023-12-07T11:03:18;6.50;;;5.90;;
9473;SDS011;8865;47.636;7.692;2023-12-07T11:05:47;6.30;;;5.70;;
9473;SDS011;8865;47.636;7.692;2023-12-07T11:08:29;6.90;;;6.20;;
9473;SDS011;8865;47.636;7.692;2023-12-07T11:11:05;6.67;;;6.07;;
9473;SDS011;8865;47.636;7.692;2023-12-07T11:13:36;6.70;;;6.10;;
9473;SDS011;8865;47.636;7.692;2023-12-07T11:16:03;6.77;;;6.03;;
9473;SDS011;8865;47.636;7.692;2023-12-07T11:18:29;7.43;;;6.53;;
9473;SDS011;8865;47.636;7.692;2023-12-07T11:20:56;6.83;;;6.03;;
9473;SDS011;8865;47.636;7.692;2023-12-07T11:23:23;7.60;;;6.90;;
9473;SDS011;8865;47.636;7.692;2023-12-07T11:25:49;8.23;;;7.43;;
9473;SDS011;8865;47.636;7.692;2023-12-07T11:28:18;7.47;;;6.77;;
9473;SDS011;8865;47.636;7.692;2023-12-07T11:30:44;7.97;;;7.17;;
9473;SDS011;8865;47.636;7.692;2023-12-07T11:33:11;7.80;;;7.10;;
9473;SDS011;8865;47.636;7.692;2023-12-07T11:38:28;8.50;;;7.70;;
9473;SDS011;8865;47.636;7.692;2023-12-07T11:40:55;8.87;;;7.47;;
9473;SDS011;8865;47.636;7.692;2023-12-07T11:46:09;7.23;;;6.53;;
9473;SDS011;8865;47.636;7.692;2023-12-07T11:48:36;7.93;;;7.13;;
9473;SDS011;8865;47.636;7.692;2023-12-07T11:51:06;7.47;;;6.77;;
9473;SDS011;8865;47.636;7.692;2023-12-07T11:53:36;7.40;;;6.70;;
9473;SDS011;8865;47.636;7.692;2023-12-07T11:56:04;6.77;;;6.07;;
9473;SDS011;8865;47.636;7.692;2023-12-07T11:58:32;7.50;;;6.80;;
9473;SDS011;8865;47.636;7.692;2023-12-07T12:00:59;7.53;;;6.83;;
9473;SDS011;8865;47.636;7.692;2023-12-07T12:03:27;7.87;;;6.80;;
9473;SDS011;8865;47.636;7.692;2023-12-07T12:05:54;6.80;;;6.03;;
9473;SDS011;8865;47.636;7.692;2023-12-07T12:08:21;7.47;;;6.67;;
9473;SDS011;8865;47.636;7.692;2023-12-07T12:10:48;7.73;;;7.00;;
9473;SDS011;8865;47.636;7.692;2023-12-07T12:13:17;7.07;;;6.47;;
9473;SDS011;8865;47.636;7.692;2023-12-07T12:15:43;8.13;;;7.33;;
9473;SDS011;8865;47.636;7.692;2023-12-07T12:18:09;7.80;;;7.10;;
9473;SDS011;8865;47.636;7.692;2023-12-07T12:20:35;8.27;;;7.20;;
9473;SDS011;8865;47.636;7.692;2023-12-07T12:23:01;7.40;;;6.60;;
9473;SDS011;8865;47.636;7.692;2023-12-07T12:25:28;7.93;;;6.83;;
9473;SDS011;8865;47.636;7.692;2023-12-07T12:27:56;7.67;;;6.90;;
9473;SDS011;8865;47.636;7.692;2023-12-07T12:30:24;7.53;;;6.83;;
9473;SDS011;8865;47.636;7.692;2023-12-07T12:32:51;7.70;;;7.00;;
9473;SDS011;8865;47.636;7.692;2023-12-07T12:35:17;7.10;;;6.40;;
9473;SDS011;8865;47.636;7.692;2023-12-07T12:37:44;7.23;;;6.53;;
9473;SDS011;8865;47.636;7.692;2023-12-07T12:40:11;7.47;;;6.77;;
9473;SDS011;8865;47.636;7.692;2023-12-07T12:42:44;8.13;;;7.33;;
9473;SDS011;8865;47.636;7.692;2023-12-07T12:45:12;7.57;;;6.77;;
9473;SDS011;8865;47.636;7.692;2023-12-07T12:47:44;7.33;;;6.63;;
9473;SDS011;8865;47.636;7.692;2023-12-07T12:50:11;7.50;;;6.70;;
9473;SDS011;8865;47.636;7.692;2023-12-07T12:52:39;7.90;;;7.10;;
9473;SDS011;8865;47.636;7.692;2023-12-07T12:55:11;7.30;;;6.60;;
9473;SDS011;8865;47.636;7.692;2023-12-07T12:57:38;7.50;;;6.70;;
9473;SDS011;8865;47.636;7.692;2023-12-07T13:00:04;8.40;;;7.27;;
9473;SDS011;8865;47.636;7.692;2023-12-07T13:02:33;8.13;;;7.33;;
9473;SDS011;8865;47.636;7.692;2023-12-07T13:05:00;8.40;;;7.53;;
9473;SDS011;8865;47.636;7.692;2023-12-07T13:07:26;7.57;;;6.77;;
9473;SDS011;8865;47.636;7.692;2023-12-07T13:09:52;8.27;;;7.20;;
9473;SDS011;8865;47.636;7.692;2023-12-07T13:12:18;8.30;;;7.50;;
9473;SDS011;8865;47.636;7.692;2023-12-07T13:14:44;8.17;;;7.37;;
9473;SDS011;8865;47.636;7.692;2023-12-07T13:17:10;8.03;;;7.23;;
9473;SDS011;8865;47.636;7.692;2023-12-07T13:19:36;8.17;;;7.17;;
9473;SDS011;8865;47.636;7.692;2023-12-07T13:22:02;8.30;;;7.50;;
9473;SDS011;8865;47.636;7.692;2023-12-07T13:24:31;7.73;;;6.93;;
9473;SDS011;8865;47.636;7.692;2023-12-07T13:26:57;8.13;;;7.33;;
9473;SDS011;8865;47.636;7.692;2023-12-07T13:29:25;8.30;;;7.37;;
9473;SDS011;8865;47.636;7.692;2023-12-07T13:31:52;8.93;;;7.60;;
9473;SDS011;8865;47.636;7.692;2023-12-07T13:34:18;8.37;;;7.20;;
9473;SDS011;8865;47.636;7.692;2023-12-07T13:36:44;7.80;;;7.00;;
9473;SDS011;8865;47.636;7.692;2023-12-07T13:39:10;8.47;;;7.23;;
9473;SDS011;8865;47.636;7.692;2023-12-07T13:41:38;6.80;;;6.10;;
9473;SDS011;8865;47.636;7.692;2023-12-07T13:44:05;7.47;;;6.70;;
9473;SDS011;8865;47.636;7.692;2023-12-07T13:46:31;7.40;;;6.70;;
9473;SDS011;8865;47.636;7.692;2023-12-07T13:48:58;8.57;;;6.90;;
9473;SDS011;8865;47.636;7.692;2023-12-07T13:51:24;7.93;;;7.13;;
9473;SDS011;8865;47.636;7.692;2023-12-07T13:53:51;8.93;;;7.50;;
9473;SDS011;8865;47.636;7.692;2023-12-07T13:56:21;7.80;;;6.83;;
9473;SDS011;8865;47.636;7.692;2023-12-07T13:58:49;8.30;;;7.43;;
9473;SDS011;8865;47.636;7.692;2023-12-07T14:01:16;9.00;;;7.83;;
9473;SDS011;8865;47.636;7.692;2023-12-07T14:03:43;8.47;;;7.57;;
9473;SDS011;8865;47.636;7.692;2023-12-07T14:06:09;8.37;;;7.57;;
9473;SDS011;8865;47.636;7.692;2023-12-07T14:08:38;9.37;;;7.97;;
9473;SDS011;8865;47.636;7.692;2023-12-07T14:11:04;8.73;;;7.83;;
9473;SDS011;8865;47.636;7.692;2023-12-07T14:13:30;9.13;;;7.90;;
9473;SDS011;8865;47.636;7.692;2023-12-07T14:15:56;10.10;;;8.07;;
9473;SDS011;8865;47.636;7.692;2023-12-07T14:18:22;9.43;;;7.90;;
9473;SDS011;8865;47.636;7.692;2023-12-07T14:20:49;9.40;;;8.07;;
9473;SDS011;8865;47.636;7.692;2023-12-07T14:23:14;8.80;;;7.50;;
9473;SDS011;8865;47.636;7.692;2023-12-07T14:25:41;10.20;;;8.30;;
9473;SDS011;8865;47.636;7.692;2023-12-07T14:28:12;9.70;;;8.60;;
9473;SDS011;8865;47.636;7.692;2023-12-07T14:30:38;10.17;;;7.73;;
9473;SDS011;8865;47.636;7.692;2023-12-07T14:33:04;9.33;;;8.33;;
9473;SDS011;8865;47.636;7.692;2023-12-07T14:35:31;9.63;;;8.63;;
9473;SDS011;8865;47.636;7.692;2023-12-07T14:37:57;9.43;;;8.17;;
9473;SDS011;8865;47.636;7.692;2023-12-07T14:40:23;9.07;;;7.93;;
9473;SDS011;8865;47.636;7.692;2023-12-07T14:42:50;9.57;;;8.30;;
9473;SDS011;8865;47.636;7.692;2023-12-07T14:45:16;9.43;;;8.33;;
9473;SDS011;8865;47.636;7.692;2023-12-07T14:47:46;8.67;;;7.77;;
9473;SDS011;8865;47.636;7.692;2023-12-07T14:50:12;11.30;;;8.27;;
9473;SDS011;8865;47.636;7.692;2023-12-07T14:52:38;10.97;;;8.60;;
9473;SDS011;8865;47.636;7.692;2023-12-07T14:55:05;12.07;;;9.00;;
9473;SDS011;8865;47.636;7.692;2023-12-07T14:57:31;9.63;;;8.63;;
9473;SDS011;8865;47.636;7.692;2023-12-07T14:59:57;10.30;;;8.50;;
9473;SDS011;8865;47.636;7.692;2023-12-07T15:02:24;8.67;;;7.77;;
9473;SDS011;8865;47.636;7.692;2023-12-07T15:04:50;9.70;;;8.70;;
9473;SDS011;8865;47.636;7.692;2023-12-07T15:07:16;12.53;;;8.60;;
9473;SDS011;8865;47.636;7.692;2023-12-07T15:09:42;9.13;;;8.07;;
9473;SDS011;8865;47.636;7.692;2023-12-07T15:12:08;10.40;;;8.73;;
9473;SDS011;8865;47.636;7.692;2023-12-07T15:14:34;10.13;;;8.03;;
9473;SDS011;8865;47.636;7.692;2023-12-07T15:17:00;10.97;;;8.53;;